Time;durP1;ratioP1;P1;durP2;ratioP2;P2;SDS_P1;SDS_P2;PMS_P1;PMS_P2;Temp;Humidity;BMP_temperature;BMP_pressure;BME280_temperature;BME280_humidity;BME280_pressure;Samples;Min_cycle;Max_cycle;Signal;HPM_P1;HPM_P2
2022/10/17 00:01:03;;;;;;;414.47;211.37;;;;;;;;;;5022669;28;20254;-55
2022/10/17 00:03:29;;;;;;;438.03;229.33;;;;;;;;;;5016462;28;20213;-55
2022/10/17 00:05:55;;;;;;;373.30;194.27;;;;;;;;;;5004257;28;20247;-55
2022/10/17 00:08:21;;;;;;;338.67;182.60;;;;;;;;;;5008012;28;20204;-54
2022/10/17 00:10:58;;;;;;;384.20;199.53;;;;;;;;;;5007546;28;20549;-54
2022/10/17 00:13:24;;;;;;;421.97;223.43;;;;;;;;;;5016424;28;20204;-53
2022/10/17 00:15:50;;;;;;;383.83;200.67;;;;;;;;;;5022537;28;20217;-54
2022/10/17 00:18:16;;;;;;;358.57;190.17;;;;;;;;;;5017851;28;20223;-53
2022/10/17 00:20:42;;;;;;;426.40;220.83;;;;;;;;;;5027120;28;20257;-54
2022/10/17 00:23:08;;;;;;;366.87;196.53;;;;;;;;;;5027124;28;20664;-56
2022/10/17 00:25:34;;;;;;;391.20;206.90;;;;;;;;;;5023269;28;20387;-53
2022/10/17 00:27:59;;;;;;;422.80;222.20;;;;;;;;;;5020886;28;20216;-54
2022/10/17 00:30:25;;;;;;;412.67;208.87;;;;;;;;;;5025710;28;20385;-55
2022/10/17 00:32:51;;;;;;;320.93;173.80;;;;;;;;;;5027722;28;20220;-54
2022/10/17 00:35:17;;;;;;;306.47;169.27;;;;;;;;;;5028621;28;20205;-54
2022/10/17 00:37:43;;;;;;;348.20;193.37;;;;;;;;;;5025714;28;20216;-53
2022/10/17 00:40:09;;;;;;;424.40;225.80;;;;;;;;;;5026112;28;20215;-54
2022/10/17 00:42:35;;;;;;;405.07;211.30;;;;;;;;;;5026281;28;20499;-54
2022/10/17 00:45:08;;;;;;;401.27;201.73;;;;;;;;;;5025829;28;20252;-54
2022/10/17 00:47:35;;;;;;;298.00;160.57;;;;;;;;;;5021793;28;20216;-54
2022/10/17 00:50:01;;;;;;;254.53;144.27;;;;;;;;;;5027491;28;20545;-55
2022/10/17 00:52:28;;;;;;;289.70;162.87;;;;;;;;;;5023975;28;20235;-54
2022/10/17 00:54:57;;;;;;;394.77;207.90;;;;;;;;;;5025726;28;20216;-54
2022/10/17 00:57:24;;;;;;;444.17;231.57;;;;;;;;;;5016531;28;20300;-54
2022/10/17 00:59:52;;;;;;;369.70;196.17;;;;;;;;;;5021295;28;20326;-53
2022/10/17 01:02:19;;;;;;;418.80;220.77;;;;;;;;;;5024030;28;20616;-54
2022/10/17 01:04:46;;;;;;;346.57;183.53;;;;;;;;;;5030750;28;20216;-54
2022/10/17 01:07:12;;;;;;;445.13;236.53;;;;;;;;;;5023597;28;20211;-54
2022/10/17 01:09:39;;;;;;;370.27;198.47;;;;;;;;;;5014677;28;20271;-55
2022/10/17 01:12:16;;;;;;;339.33;178.37;;;;;;;;;;5013489;28;20668;-55
2022/10/17 01:14:54;;;;;;;373.83;201.00;;;;;;;;;;5026471;28;20223;-54
2022/10/17 01:17:29;;;;;;;381.23;202.03;;;;;;;;;;5018678;28;20640;-54
2022/10/17 01:20:13;;;;;;;385.97;208.30;;;;;;;;;;5023382;28;20212;-54
2022/10/17 01:22:46;;;;;;;426.17;222.10;;;;;;;;;;5025986;28;20668;-54
2022/10/17 01:25:25;;;;;;;279.63;156.00;;;;;;;;;;5024495;28;20223;-54
2022/10/17 01:27:58;;;;;;;270.93;154.40;;;;;;;;;;5025144;28;20607;-54
2022/10/17 01:30:24;;;;;;;301.97;168.87;;;;;;;;;;5026873;28;20215;-54
2022/10/17 01:32:56;;;;;;;392.57;210.07;;;;;;;;;;5025419;28;20216;-53
2022/10/17 01:35:28;;;;;;;358.37;194.97;;;;;;;;;;5022831;28;20234;-54
2022/10/17 01:38:16;;;;;;;413.27;217.47;;;;;;;;;;5005981;28;20665;-54
2022/10/17 01:40:46;;;;;;;329.10;176.87;;;;;;;;;;5005786;28;20255;-55
2022/10/17 01:43:15;;;;;;;404.67;212.50;;;;;;;;;;5014133;28;20212;-54
2022/10/17 01:46:01;;;;;;;328.37;179.57;;;;;;;;;;5025783;28;20211;-54
2022/10/17 01:48:31;;;;;;;301.10;167.27;;;;;;;;;;5026041;28;20231;-54
2022/10/17 01:51:01;;;;;;;340.17;184.83;;;;;;;;;;5026705;28;20228;-55
2022/10/17 01:53:29;;;;;;;452.80;238.30;;;;;;;;;;5023595;28;20195;-53
2022/10/17 01:55:57;;;;;;;353.03;186.87;;;;;;;;;;5025328;28;20203;-54
2022/10/17 01:58:33;;;;;;;438.40;233.87;;;;;;;;;;5020936;28;20251;-53
2022/10/17 02:01:01;;;;;;;329.77;177.83;;;;;;;;;;5025230;28;20298;-54
2022/10/17 02:03:28;;;;;;;397.70;208.40;;;;;;;;;;5022985;28;20838;-55
2022/10/17 02:05:54;;;;;;;393.37;201.47;;;;;;;;;;5029782;28;20353;-54
2022/10/17 02:08:27;;;;;;;316.17;164.00;;;;;;;;;;5022078;28;20298;-53
2022/10/17 02:10:53;;;;;;;385.13;197.40;;;;;;;;;;5021489;28;20259;-53
2022/10/17 02:13:25;;;;;;;390.10;201.43;;;;;;;;;;5025325;28;20266;-53
2022/10/17 02:16:00;;;;;;;396.33;201.50;;;;;;;;;;5022111;28;20235;-54
2022/10/17 02:18:34;;;;;;;315.03;168.97;;;;;;;;;;5021138;28;20226;-53
2022/10/17 02:21:04;;;;;;;354.07;180.57;;;;;;;;;;5023589;28;20219;-54
2022/10/17 02:26:11;;;;;;;297.00;164.70;;;;;;;;;;4963223;28;20229;-54
2022/10/17 02:28:41;;;;;;;376.70;206.63;;;;;;;;;;4957532;28;20241;-54
2022/10/17 02:31:16;;;;;;;533.70;281.60;;;;;;;;;;4955622;28;20315;-53
2022/10/17 02:33:56;;;;;;;426.23;226.10;;;;;;;;;;4961075;28;20454;-53
2022/10/17 02:36:24;;;;;;;442.70;233.37;;;;;;;;;;4960886;28;20446;-54
2022/10/17 02:38:51;;;;;;;376.37;199.13;;;;;;;;;;4960083;28;20731;-53
2022/10/17 02:41:18;;;;;;;488.53;258.03;;;;;;;;;;4963309;28;20181;-53
2022/10/17 02:43:46;;;;;;;491.67;262.57;;;;;;;;;;4965184;28;20291;-53
2022/10/17 02:46:19;;;;;;;367.30;197.00;;;;;;;;;;4962852;28;20218;-53
2022/10/17 02:49:06;;;;;;;414.87;225.17;;;;;;;;;;4954347;28;20209;-53
2022/10/17 02:51:52;;;;;;;525.27;272.43;;;;;;;;;;4961299;28;20585;-52
2022/10/17 02:54:20;;;;;;;387.30;213.67;;;;;;;;;;4962141;28;20911;-54
2022/10/17 02:56:55;;;;;;;460.67;240.07;;;;;;;;;;4967538;28;20703;-53
2022/10/17 02:59:22;;;;;;;327.60;182.17;;;;;;;;;;4964845;28;20247;-53
2022/10/17 03:01:50;;;;;;;311.57;172.57;;;;;;;;;;4961585;28;20713;-54
2022/10/17 03:04:17;;;;;;;287.23;160.03;;;;;;;;;;4962349;28;20236;-52
2022/10/17 03:06:43;;;;;;;445.20;249.03;;;;;;;;;;4960760;28;20233;-53
2022/10/17 03:09:09;;;;;;;457.70;239.53;;;;;;;;;;4962624;28;20213;-53
2022/10/17 03:11:35;;;;;;;391.33;210.13;;;;;;;;;;4967919;28;20696;-54
2022/10/17 03:14:01;;;;;;;436.30;225.93;;;;;;;;;;4968444;28;20725;-54
2022/10/17 03:16:27;;;;;;;345.80;186.13;;;;;;;;;;4958455;28;20236;-53
2022/10/17 03:18:53;;;;;;;497.23;254.27;;;;;;;;;;4958626;28;20221;-53
2022/10/17 03:21:19;;;;;;;481.77;261.33;;;;;;;;;;4959643;28;20218;-53
2022/10/17 03:23:45;;;;;;;394.63;222.00;;;;;;;;;;4961737;28;20241;-53
2022/10/17 03:26:11;;;;;;;386.50;217.10;;;;;;;;;;4961457;28;20902;-53
2022/10/17 03:28:37;;;;;;;376.90;211.33;;;;;;;;;;4962937;28;20249;-54
2022/10/17 03:31:07;;;;;;;448.00;244.20;;;;;;;;;;4954866;28;20366;-54
2022/10/17 03:33:33;;;;;;;363.83;200.33;;;;;;;;;;4960507;28;21207;-54
2022/10/17 03:35:59;;;;;;;460.73;249.07;;;;;;;;;;4956275;28;20370;-52
2022/10/17 03:38:25;;;;;;;369.03;203.10;;;;;;;;;;4965800;28;20197;-53
2022/10/17 03:40:56;;;;;;;363.20;199.13;;;;;;;;;;4964611;28;20182;-53
2022/10/17 03:43:22;;;;;;;305.40;174.13;;;;;;;;;;4962946;28;20284;-54
2022/10/17 03:45:48;;;;;;;431.47;232.23;;;;;;;;;;4955810;28;20221;-53
2022/10/17 03:48:14;;;;;;;457.53;237.33;;;;;;;;;;4964884;28;20257;-53
2022/10/17 03:50:40;;;;;;;380.10;213.30;;;;;;;;;;4962994;28;20304;-51
2022/10/17 03:53:06;;;;;;;447.97;226.13;;;;;;;;;;4960703;28;20248;-53
2022/10/17 03:55:32;;;;;;;306.00;175.87;;;;;;;;;;4960544;28;20244;-51
2022/10/17 03:57:58;;;;;;;275.53;158.07;;;;;;;;;;4958230;28;20213;-53
2022/10/17 04:00:24;;;;;;;294.30;171.53;;;;;;;;;;4957407;28;20255;-52
2022/10/17 04:02:50;;;;;;;425.13;223.47;;;;;;;;;;4953880;28;20210;-52
2022/10/17 04:05:16;;;;;;;498.87;268.40;;;;;;;;;;4966187;28;20225;-52
2022/10/17 04:07:42;;;;;;;369.10;207.00;;;;;;;;;;4965448;28;20752;-51
2022/10/17 04:10:08;;;;;;;485.67;267.00;;;;;;;;;;4954941;28;20222;-55
2022/10/17 04:12:34;;;;;;;292.90;167.97;;;;;;;;;;4963368;28;20221;-55
2022/10/17 04:15:00;;;;;;;431.90;238.07;;;;;;;;;;4951386;28;20574;-55
2022/10/17 04:17:26;;;;;;;448.00;243.50;;;;;;;;;;4962654;28;20185;-55
2022/10/17 04:19:52;;;;;;;353.63;193.97;;;;;;;;;;4963180;28;20206;-55
2022/10/17 04:22:18;;;;;;;415.17;228.20;;;;;;;;;;4963508;28;20299;-56
2022/10/17 04:24:44;;;;;;;435.93;235.23;;;;;;;;;;4962128;28;20254;-55
2022/10/17 04:27:10;;;;;;;501.67;271.83;;;;;;;;;;4961216;28;21288;-55
2022/10/17 04:29:36;;;;;;;371.73;204.40;;;;;;;;;;4960207;28;20209;-55
2022/10/17 04:32:02;;;;;;;453.73;236.97;;;;;;;;;;4965883;28;20189;-55
2022/10/17 04:34:28;;;;;;;460.83;244.83;;;;;;;;;;4958164;28;20393;-55
2022/10/17 04:36:54;;;;;;;419.37;228.07;;;;;;;;;;4965104;28;20218;-55
2022/10/17 04:39:20;;;;;;;306.90;174.90;;;;;;;;;;4955189;28;21015;-55
2022/10/17 04:41:46;;;;;;;346.10;186.97;;;;;;;;;;4961411;28;20222;-55
2022/10/17 04:44:12;;;;;;;432.33;243.37;;;;;;;;;;4956545;28;20240;-55
2022/10/17 04:46:38;;;;;;;408.03;216.30;;;;;;;;;;4954811;28;20361;-55
2022/10/17 04:49:04;;;;;;;479.00;256.30;;;;;;;;;;4955359;28;20229;-55
2022/10/17 04:51:30;;;;;;;469.97;253.70;;;;;;;;;;4959594;28;20222;-55
2022/10/17 04:53:56;;;;;;;349.60;194.00;;;;;;;;;;4955027;28;20217;-55
2022/10/17 04:56:23;;;;;;;345.30;195.50;;;;;;;;;;4962830;28;20301;-55
2022/10/17 04:58:49;;;;;;;345.07;186.70;;;;;;;;;;4959555;28;20182;-57
2022/10/17 05:01:17;;;;;;;458.00;254.23;;;;;;;;;;4958773;28;20213;-57
2022/10/17 05:03:43;;;;;;;486.83;259.27;;;;;;;;;;4953213;28;20674;-57
2022/10/17 05:06:12;;;;;;;501.63;266.57;;;;;;;;;;4965737;28;20225;-57
2022/10/17 05:08:38;;;;;;;429.57;230.40;;;;;;;;;;4954642;28;20661;-56
2022/10/17 05:11:04;;;;;;;518.33;293.47;;;;;;;;;;4955220;28;20197;-57
2022/10/17 05:13:31;;;;;;;428.63;223.47;;;;;;;;;;4948006;28;20442;-57
2022/10/17 05:16:00;;;;;;;325.00;183.23;;;;;;;;;;4968051;28;20256;-56
2022/10/17 05:18:27;;;;;;;510.57;269.47;;;;;;;;;;4958561;28;20280;-59
2022/10/17 05:20:53;;;;;;;412.27;220.70;;;;;;;;;;4955594;28;20287;-60
2022/10/17 05:23:19;;;;;;;498.27;258.43;;;;;;;;;;4920252;28;20300;-59
2022/10/17 05:25:45;;;;;;;410.60;219.57;;;;;;;;;;4960584;28;20645;-60
2022/10/17 05:28:11;;;;;;;477.33;250.63;;;;;;;;;;4963792;28;20385;-58
2022/10/17 05:30:37;;;;;;;477.07;241.70;;;;;;;;;;4966097;28;20249;-58
2022/10/17 05:33:03;;;;;;;347.23;178.10;;;;;;;;;;4969661;28;20734;-57
2022/10/17 05:35:29;;;;;;;417.60;223.27;;;;;;;;;;4969533;28;20243;-61
2022/10/17 05:37:55;;;;;;;339.77;183.80;;;;;;;;;;4963104;28;20216;-59
2022/10/17 05:40:21;;;;;;;428.03;226.40;;;;;;;;;;4958241;28;20224;-58
2022/10/17 05:42:48;;;;;;;430.03;231.10;;;;;;;;;;4955695;28;20236;-58
2022/10/17 05:45:14;;;;;;;404.77;219.63;;;;;;;;;;4959546;28;20233;-58
2022/10/17 05:47:40;;;;;;;441.83;244.07;;;;;;;;;;4962224;28;20736;-56
2022/10/17 05:50:07;;;;;;;430.83;224.00;;;;;;;;;;4952837;28;20186;-56
2022/10/17 05:52:33;;;;;;;466.67;250.40;;;;;;;;;;4951579;28;20290;-53
2022/10/17 05:54:59;;;;;;;330.90;189.23;;;;;;;;;;4953560;28;20826;-52
2022/10/17 05:57:25;;;;;;;549.73;285.97;;;;;;;;;;4948785;28;20373;-51
2022/10/17 05:59:51;;;;;;;499.73;250.73;;;;;;;;;;4953094;28;20225;-52
2022/10/17 06:02:17;;;;;;;372.20;199.10;;;;;;;;;;4954858;28;20186;-56
2022/10/17 06:04:44;;;;;;;456.80;232.80;;;;;;;;;;4953128;28;20365;-56
2022/10/17 06:07:11;;;;;;;266.33;153.00;;;;;;;;;;4956214;28;20609;-56
2022/10/17 06:09:37;;;;;;;337.60;189.13;;;;;;;;;;4967640;28;20778;-55
2022/10/17 06:12:04;;;;;;;275.80;159.87;;;;;;;;;;4963033;28;20403;-55
2022/10/17 06:14:30;;;;;;;432.10;222.73;;;;;;;;;;4950768;28;20895;-55
2022/10/17 06:16:56;;;;;;;511.67;255.13;;;;;;;;;;4956063;28;20254;-54
2022/10/17 06:19:21;;;;;;;413.10;213.37;;;;;;;;;;4973750;28;20201;-55
2022/10/17 06:21:47;;;;;;;202.73;126.73;;;;;;;;;;4971154;28;20634;-55
2022/10/17 06:24:13;;;;;;;229.30;139.20;;;;;;;;;;4981193;28;20248;-55
2022/10/17 06:26:39;;;;;;;207.90;132.63;;;;;;;;;;4979909;28;20217;-55
2022/10/17 06:29:05;;;;;;;200.13;127.27;;;;;;;;;;4977871;28;20178;-54
2022/10/17 06:31:31;;;;;;;215.13;134.77;;;;;;;;;;4977834;28;20217;-55
2022/10/17 06:33:57;;;;;;;225.13;138.83;;;;;;;;;;4974614;28;20213;-55
2022/10/17 06:36:23;;;;;;;224.67;142.23;;;;;;;;;;4978893;28;20220;-55
2022/10/17 06:38:49;;;;;;;223.53;138.37;;;;;;;;;;4976474;28;20272;-54
2022/10/17 06:41:17;;;;;;;208.80;131.10;;;;;;;;;;4982466;28;20181;-55
2022/10/17 06:43:47;;;;;;;209.67;130.77;;;;;;;;;;4976382;28;20209;-54
2022/10/17 06:46:14;;;;;;;293.40;170.07;;;;;;;;;;4950299;28;20323;-55
2022/10/17 06:48:40;;;;;;;577.47;315.97;;;;;;;;;;4955128;28;20839;-56
2022/10/17 06:51:08;;;;;;;276.37;164.67;;;;;;;;;;4960971;28;20312;-57
2022/10/17 06:53:35;;;;;;;518.77;281.07;;;;;;;;;;4963906;28;20257;-57
2022/10/17 06:56:02;;;;;;;548.47;291.13;;;;;;;;;;4967216;28;20348;-55
2022/10/17 06:58:29;;;;;;;484.00;263.83;;;;;;;;;;4971182;28;20269;-55
2022/10/17 07:01:02;;;;;;;490.70;268.33;;;;;;;;;;4964933;28;20226;-55
2022/10/17 07:03:28;;;;;;;433.53;244.70;;;;;;;;;;4972976;28;20224;-56
2022/10/17 07:05:55;;;;;;;426.10;236.30;;;;;;;;;;4964347;28;20221;-56
2022/10/17 07:08:21;;;;;;;486.17;272.83;;;;;;;;;;4953262;28;20206;-56
2022/10/17 07:10:50;;;;;;;382.17;225.33;;;;;;;;;;4959557;28;20255;-56
2022/10/17 07:13:16;;;;;;;350.30;200.67;;;;;;;;;;4962591;28;20233;-55
2022/10/17 07:15:43;;;;;;;313.77;184.93;;;;;;;;;;4963149;28;20252;-56
2022/10/17 07:18:09;;;;;;;339.88;196.73;;;;;;;;;;4968932;28;20254;-56
2022/10/17 07:20:35;;;;;;;430.40;237.93;;;;;;;;;;4964343;28;20232;-55
2022/10/17 07:23:01;;;;;;;413.77;230.57;;;;;;;;;;4964603;28;20197;-56
2022/10/17 07:25:27;;;;;;;448.77;247.50;;;;;;;;;;4968867;28;20354;-56
2022/10/17 07:27:53;;;;;;;521.80;288.30;;;;;;;;;;4968602;28;20640;-56
2022/10/17 07:30:20;;;;;;;339.30;193.20;;;;;;;;;;4968048;28;20217;-56
2022/10/17 07:32:46;;;;;;;367.73;211.93;;;;;;;;;;4966813;28;20761;-55
2022/10/17 07:35:13;;;;;;;272.97;159.37;;;;;;;;;;4972060;28;20406;-55
2022/10/17 07:37:39;;;;;;;461.57;271.27;;;;;;;;;;4972733;28;20235;-57
2022/10/17 07:40:06;;;;;;;450.53;249.17;;;;;;;;;;4959551;28;20855;-56
2022/10/17 07:42:32;;;;;;;454.75;265.52;;;;;;;;;;4962913;28;20678;-56
2022/10/17 07:44:58;;;;;;;430.87;240.03;;;;;;;;;;4950875;28;20437;-56
2022/10/17 07:47:24;;;;;;;384.80;214.47;;;;;;;;;;4960537;28;20610;-56
2022/10/17 07:49:50;;;;;;;359.57;198.63;;;;;;;;;;4968596;28;20508;-56
2022/10/17 07:52:16;;;;;;;363.90;207.50;;;;;;;;;;4972173;28;20253;-56
2022/10/17 07:54:42;;;;;;;385.70;217.77;;;;;;;;;;4971515;28;20233;-56
2022/10/17 07:57:11;;;;;;;537.60;292.30;;;;;;;;;;4961120;28;20218;-57
2022/10/17 07:59:37;;;;;;;466.23;268.27;;;;;;;;;;4961684;28;20366;-57
2022/10/17 08:02:03;;;;;;;475.65;262.83;;;;;;;;;;4963732;28;20240;-56
2022/10/17 08:04:29;;;;;;;441.50;254.90;;;;;;;;;;4964722;28;20233;-56
2022/10/17 08:06:55;;;;;;;494.23;281.53;;;;;;;;;;4961962;28;20308;-55
2022/10/17 08:09:22;;;;;;;414.40;242.47;;;;;;;;;;4962300;28;20443;-55
2022/10/17 08:11:48;;;;;;;372.50;210.10;;;;;;;;;;4959146;28;20802;-56
2022/10/17 08:14:15;;;;;;;477.67;260.53;;;;;;;;;;4962755;28;20202;-55
2022/10/17 08:16:41;;;;;;;526.13;296.90;;;;;;;;;;4965570;28;20240;-56
2022/10/17 08:19:11;;;;;;;492.20;281.17;;;;;;;;;;4958646;28;20320;-55
2022/10/17 08:21:37;;;;;;;546.00;315.83;;;;;;;;;;4960198;28;20229;-56
2022/10/17 08:26:38;;;;;;;331.33;204.97;;;;;;;;;;4999462;28;20236;-48
2022/10/17 08:29:04;;;;;;;312.73;194.60;;;;;;;;;;4995130;28;20204;-48
2022/10/17 08:31:30;;;;;;;314.27;194.50;;;;;;;;;;5003792;28;20208;-48
2022/10/17 08:33:56;;;;;;;477.23;283.47;;;;;;;;;;4999555;28;20263;-48
2022/10/17 08:36:22;;;;;;;411.10;255.77;;;;;;;;;;4995804;28;20658;-47
2022/10/17 08:38:48;;;;;;;448.17;270.83;;;;;;;;;;4997223;28;20367;-48
2022/10/17 08:41:18;;;;;;;388.27;233.17;;;;;;;;;;4998864;28;20260;-48
2022/10/17 08:43:50;;;;;;;368.47;228.97;;;;;;;;;;4980499;28;20597;-48
2022/10/17 08:46:16;;;;;;;331.00;205.23;;;;;;;;;;4978228;28;20247;-48
2022/10/17 08:48:44;;;;;;;352.30;212.23;;;;;;;;;;4977704;28;20232;-48
2022/10/17 08:51:13;;;;;;;374.70;228.90;;;;;;;;;;4981750;28;20224;-48
2022/10/17 08:53:44;;;;;;;451.90;272.80;;;;;;;;;;4975610;28;20217;-48
2022/10/17 08:56:24;;;;;;;425.20;258.40;;;;;;;;;;4978583;28;20267;-48
2022/10/17 08:58:50;;;;;;;382.92;233.23;;;;;;;;;;4978065;28;20257;-48
2022/10/17 09:01:28;;;;;;;429.38;248.10;;;;;;;;;;4980245;28;20221;-48
2022/10/17 09:04:13;;;;;;;376.25;225.77;;;;;;;;;;4973416;28;20214;-48
2022/10/17 09:06:48;;;;;;;360.80;218.82;;;;;;;;;;4970413;28;20237;-48
2022/10/17 09:09:14;;;;;;;366.92;221.90;;;;;;;;;;4984619;28;20664;-49
2022/10/17 09:11:47;;;;;;;490.85;288.75;;;;;;;;;;4989448;28;20241;-49
2022/10/17 09:14:13;;;;;;;415.05;257.95;;;;;;;;;;4982391;28;20672;-49
2022/10/17 09:16:42;;;;;;;423.90;259.98;;;;;;;;;;4989247;28;20272;-49
2022/10/17 09:19:23;;;;;;;410.77;247.25;;;;;;;;;;4981085;28;20221;-48
2022/10/17 09:21:53;;;;;;;464.52;279.33;;;;;;;;;;4969329;28;20315;-48
2022/10/17 09:24:54;;;;;;;462.75;275.83;;;;;;;;;;4975985;28;20373;-48
2022/10/17 09:27:44;;;;;;;356.20;219.00;;;;;;;;;;4959185;28;21038;-48
2022/10/17 09:30:31;;;;;;;508.23;307.08;;;;;;;;;;4960481;28;20694;-48
2022/10/17 09:32:56;;;;;;;452.40;274.15;;;;;;;;;;4978984;28;20245;-48
2022/10/17 09:35:23;;;;;;;467.85;278.02;;;;;;;;;;4979117;28;20751;-49
2022/10/17 09:37:52;;;;;;;438.77;270.38;;;;;;;;;;4977928;28;20193;-49
2022/10/17 09:40:26;;;;;;;495.60;293.70;;;;;;;;;;5000356;28;20212;-49
2022/10/17 09:42:53;;;;;;;428.85;258.80;;;;;;;;;;4998731;28;20221;-49
2022/10/17 09:45:23;;;;;;;390.52;233.25;;;;;;;;;;5011345;28;20240;-49
2022/10/17 09:48:04;;;;;;;433.23;263.05;;;;;;;;;;5006261;28;20220;-49
2022/10/17 09:50:31;;;;;;;439.85;267.98;;;;;;;;;;5000367;28;20161;-49
2022/10/17 09:53:01;;;;;;;497.15;303.73;;;;;;;;;;5002288;28;20181;-49
2022/10/17 09:55:33;;;;;;;506.80;303.65;;;;;;;;;;4977223;28;20284;-49
2022/10/17 09:58:00;;;;;;;436.38;248.95;;;;;;;;;;4979709;28;20368;-49
2022/10/17 10:00:31;;;;;;;433.38;256.70;;;;;;;;;;4978427;28;20661;-49
2022/10/17 10:03:08;;;;;;;427.42;253.95;;;;;;;;;;4985821;28;20212;-49
2022/10/17 10:05:34;;;;;;;398.77;236.32;;;;;;;;;;5000847;28;20244;-48
2022/10/17 10:08:05;;;;;;;515.38;307.83;;;;;;;;;;4999485;28;20520;-49
2022/10/17 10:10:31;;;;;;;454.55;273.33;;;;;;;;;;4993079;28;20311;-49
2022/10/17 10:13:06;;;;;;;521.33;312.77;;;;;;;;;;4997493;28;20295;-49
2022/10/17 10:15:34;;;;;;;449.15;274.83;;;;;;;;;;4994341;28;20275;-49
2022/10/17 10:18:00;;;;;;;469.23;279.13;;;;;;;;;;4999225;28;20282;-49
2022/10/17 10:20:37;;;;;;;432.92;260.58;;;;;;;;;;4993851;28;20299;-49
2022/10/17 10:23:20;;;;;;;437.50;261.77;;;;;;;;;;5002434;28;20188;-50
2022/10/17 10:25:53;;;;;;;501.50;309.50;;;;;;;;;;5000058;28;20396;-49
2022/10/17 10:28:19;;;;;;;538.03;333.65;;;;;;;;;;4999153;28;20224;-49
2022/10/17 10:30:47;;;;;;;490.23;292.42;;;;;;;;;;4994256;28;20232;-50
2022/10/17 10:33:13;;;;;;;536.67;325.27;;;;;;;;;;4996182;28;20217;-50
2022/10/17 10:35:39;;;;;;;489.05;289.95;;;;;;;;;;4998300;28;20694;-50
2022/10/17 10:38:10;;;;;;;412.38;244.13;;;;;;;;;;4997935;28;20216;-50
2022/10/17 10:40:38;;;;;;;417.90;249.07;;;;;;;;;;4995243;28;20556;-50
2022/10/17 10:43:06;;;;;;;408.98;245.25;;;;;;;;;;4999896;28;21064;-50
2022/10/17 10:45:35;;;;;;;557.28;343.73;;;;;;;;;;5000008;28;20518;-49
2022/10/17 10:48:02;;;;;;;442.10;268.40;;;;;;;;;;4994377;28;20227;-50
2022/10/17 10:50:34;;;;;;;579.72;365.85;;;;;;;;;;5002830;28;20520;-49
2022/10/17 10:53:18;;;;;;;442.65;271.58;;;;;;;;;;4999960;28;20282;-49
2022/10/17 10:55:44;;;;;;;456.05;291.70;;;;;;;;;;4996616;28;20224;-49
2022/10/17 10:58:28;;;;;;;403.17;250.15;;;;;;;;;;4999481;28;20264;-48
2022/10/17 11:00:54;;;;;;;416.70;261.75;;;;;;;;;;4993653;28;20296;-49
2022/10/17 11:03:26;;;;;;;522.65;321.95;;;;;;;;;;5002034;28;20694;-49
2022/10/17 11:05:55;;;;;;;570.38;353.17;;;;;;;;;;4999734;28;20225;-49
2022/10/17 11:08:28;;;;;;;435.75;274.25;;;;;;;;;;5003730;28;20641;-49
2022/10/17 11:11:16;;;;;;;580.05;359.80;;;;;;;;;;4997210;28;20188;-49
2022/10/17 11:13:45;;;;;;;438.13;280.55;;;;;;;;;;5002302;28;20212;-49
2022/10/17 11:16:22;;;;;;;484.25;305.83;;;;;;;;;;4995847;28;20423;-50
2022/10/17 11:18:52;;;;;;;481.80;301.70;;;;;;;;;;4994315;28;20217;-49
2022/10/17 11:21:41;;;;;;;440.50;282.30;;;;;;;;;;5004977;28;20221;-49
2022/10/17 11:24:12;;;;;;;400.75;258.17;;;;;;;;;;4997796;28;20298;-49
2022/10/17 11:26:41;;;;;;;538.75;346.67;;;;;;;;;;5004789;28;20339;-50
2022/10/17 11:29:10;;;;;;;421.27;271.75;;;;;;;;;;5001287;28;20177;-49
2022/10/17 11:31:38;;;;;;;519.70;333.77;;;;;;;;;;4995438;28;20248;-49
2022/10/17 11:34:07;;;;;;;429.73;276.73;;;;;;;;;;4987875;28;20237;-49
2022/10/17 11:36:37;;;;;;;407.92;262.75;;;;;;;;;;4981934;28;20480;-49
2022/10/17 11:39:13;;;;;;;378.10;252.43;;;;;;;;;;4976648;28;20214;-49
2022/10/17 11:41:44;;;;;;;492.33;319.77;;;;;;;;;;4982693;28;20332;-49
2022/10/17 11:44:29;;;;;;;461.45;305.73;;;;;;;;;;4979873;28;20405;-48
2022/10/17 11:46:58;;;;;;;601.92;390.95;;;;;;;;;;4966448;28;20226;-49
2022/10/17 11:49:30;;;;;;;406.38;269.05;;;;;;;;;;5002699;28;20274;-49
2022/10/17 11:52:05;;;;;;;504.25;339.33;;;;;;;;;;4983198;28;20218;-49
2022/10/17 11:54:57;;;;;;;418.60;279.85;;;;;;;;;;4973742;28;20221;-49
2022/10/17 11:57:33;;;;;;;404.88;269.50;;;;;;;;;;4967148;28;20571;-49
2022/10/17 12:00:18;;;;;;;558.28;367.52;;;;;;;;;;4969169;28;20240;-49
2022/10/17 12:02:43;;;;;;;562.97;368.52;;;;;;;;;;4977430;28;20297;-49
2022/10/17 12:05:10;;;;;;;497.85;336.70;;;;;;;;;;4995682;28;20296;-49
2022/10/17 12:07:39;;;;;;;527.15;349.08;;;;;;;;;;4999670;28;21145;-49
2022/10/17 12:10:23;;;;;;;387.40;254.40;;;;;;;;;;4994223;28;20633;-49
2022/10/17 12:12:49;;;;;;;492.70;324.77;;;;;;;;;;4997104;28;20213;-49
2022/10/17 12:15:25;;;;;;;533.03;348.10;;;;;;;;;;4993358;28;20277;-49
2022/10/17 12:18:13;;;;;;;438.33;305.40;;;;;;;;;;5007182;28;20723;-49
2022/10/17 12:20:39;;;;;;;472.50;313.20;;;;;;;;;;4998191;28;20220;-50
2022/10/17 12:23:18;;;;;;;512.42;338.30;;;;;;;;;;5001175;28;20747;-49
2022/10/17 12:25:51;;;;;;;513.90;346.77;;;;;;;;;;4996831;28;20727;-49
2022/10/17 12:28:20;;;;;;;454.15;301.65;;;;;;;;;;4997929;28;20239;-45
2022/10/17 12:30:57;;;;;;;434.20;288.25;;;;;;;;;;5000896;28;20212;-45
2022/10/17 12:33:30;;;;;;;414.73;281.48;;;;;;;;;;4996053;28;20220;-46
2022/10/17 12:36:14;;;;;;;406.90;286.58;;;;;;;;;;4999588;28;20327;-45
2022/10/17 12:38:40;;;;;;;529.83;366.00;;;;;;;;;;5000808;28;20216;-45
2022/10/17 12:41:06;;;;;;;505.75;351.38;;;;;;;;;;5000110;28;20227;-45
2022/10/17 12:43:36;;;;;;;503.67;344.50;;;;;;;;;;5000661;28;20359;-46
2022/10/17 12:46:07;;;;;;;499.50;353.88;;;;;;;;;;5001942;28;20320;-45
2022/10/17 12:48:33;;;;;;;525.55;367.33;;;;;;;;;;4989854;28;20256;-46
2022/10/17 12:50:59;;;;;;;387.38;291.98;;;;;;;;;;4979569;28;20221;-45
2022/10/17 12:53:28;;;;;;;485.35;330.38;;;;;;;;;;4994909;28;20198;-46
2022/10/17 12:56:00;;;;;;;468.65;329.25;;;;;;;;;;5001220;28;20279;-46
2022/10/17 12:58:26;;;;;;;501.48;339.65;;;;;;;;;;5000458;28;20212;-46
2022/10/17 13:00:57;;;;;;;518.17;362.83;;;;;;;;;;5001001;28;20538;-46
2022/10/17 13:03:23;;;;;;;527.67;366.45;;;;;;;;;;5000331;28;20214;-44
2022/10/17 13:06:03;;;;;;;429.67;313.88;;;;;;;;;;4999333;28;20311;-44
2022/10/17 13:08:33;;;;;;;401.88;299.33;;;;;;;;;;5001414;28;20630;-44
2022/10/17 13:11:00;;;;;;;443.05;323.58;;;;;;;;;;5003980;28;20200;-44
2022/10/17 13:13:35;;;;;;;402.63;303.75;;;;;;;;;;5003061;28;20224;-46
2022/10/17 13:16:01;;;;;;;550.40;382.58;;;;;;;;;;4999884;28;20265;-44
2022/10/17 13:18:27;;;;;;;434.50;314.10;;;;;;;;;;4999636;28;20308;-46
2022/10/17 13:20:54;;;;;;;534.55;373.52;;;;;;;;;;4999036;28;20224;-46
2022/10/17 13:23:21;;;;;;;435.75;327.23;;;;;;;;;;4999816;28;20201;-46
2022/10/17 13:25:47;;;;;;;492.58;368.73;;;;;;;;;;4998614;28;20327;-46
2022/10/17 13:28:13;;;;;;;492.33;366.52;;;;;;;;;;5000118;28;20303;-46
2022/10/17 13:30:45;;;;;;;540.70;403.15;;;;;;;;;;5000785;28;20223;-46
2022/10/17 13:33:29;;;;;;;474.05;356.65;;;;;;;;;;5001332;28;20261;-46
2022/10/17 13:35:55;;;;;;;490.05;388.92;;;;;;;;;;4996613;28;20509;-46
2022/10/17 13:38:24;;;;;;;558.83;426.58;;;;;;;;;;4998225;28;20252;-45
2022/10/17 13:40:49;;;;;;;505.05;403.75;;;29.60;1.00;;;;;;4998724;28;20231;-46
2022/10/17 13:43:19;;;;;;;510.60;401.33;;;29.50;1.00;;;;;;4999966;28;20648;-46
2022/10/17 13:45:49;;;;;;;425.23;352.88;;;29.20;1.00;;;;;;5000435;28;20233;-45
2022/10/17 13:48:27;;;;;;;484.75;377.73;;;29.20;1.00;;;;;;5001078;28;20320;-46
2022/10/17 13:50:55;;;;;;;402.15;337.35;;;29.20;1.00;;;;;;4998000;28;20228;-46
2022/10/17 13:53:40;;;;;;;510.30;408.92;;;29.20;1.00;;;;;;4999121;28;20251;-46
2022/10/17 13:56:19;;;;;;;418.70;361.80;;;28.80;1.00;;;;;;4986480;28;20322;-48
2022/10/17 13:58:50;;;;;;;545.00;429.52;;;28.50;1.00;;;;;;4998649;28;20234;-48
2022/10/17 14:01:17;;;;;;;529.75;421.92;;;28.50;1.00;;;;;;4998736;28;20704;-48
2022/10/17 14:03:44;;;;;;;554.70;443.63;;;28.50;1.00;;;;;;4999724;28;20324;-46
2022/10/17 14:06:28;;;;;;;388.13;345.67;;;28.20;1.00;;;;;;4999678;28;20259;-47